Clutier, Iowa
Current Conditions -  °F | °C
As of 2:55 AM on Saturday 25 Oct 2014 (Local Time) from KVTI Reporting Station
Moderate Fog Moderate Fog  
Wind Chill: 13°   Ceiling: 200
Heat Index: 13°   Visibility: 0.25mi
Dew Point: 12°   Wind: 0mph
Humidity: 96%   Direction: NA
Pressure: 29.97"   Gusts: NA
Location:  42.08°N, 92.4°W
Report Text: KVTI 250755Z AUTO 00000KT 1/4SM FG OVC002 13/12 A2997 RMK AO2 T01300123
Loading
Personal Weather Stations






























Interactive Weather Map
Tropical Storm Tracking
New forecast layout! Learn more

10-Day Weather Forecast

Advertisements
Track Severe Weather on mobile